Latest Weather Observations for Troughton Island

IDW60801

Issued at 7:22 am WST Thursday 18 July 2024 (issued every 10 minutes, with the page automatically refreshed every 10 minutes)

About weather observations | Map of weather stations | Latest weather observations for WA | Other Formats
Station Details ID: 001007 Name: TROUGHTON ISLAND Lat: -13.75 Lon: 126.15 Height: 6.0 m
Data from the previous 72 hours. | See also: Recent months at Troughton Island
Date/Time
WST
Temp
°C
App
Temp
°C
Dew
Point
°C
Rel
Hum
%
Delta-T
°C
Wind Press
QNH
hPa
Press
MSL
hPa
Rain since
9am
mm
Dir  Spd
km/h
Gust
km/h
Spd
kts
Gust
kts
18/07:00am 22.8 14.8 11.2 48 6.4 ESE 44 57 24 31 1019.5 1019.4 0.0
18/06:30am 22.4 13.9 10.5 47 6.5 ESE 46 56 25 30 1019.3 1019.2 0.0
18/06:00am 22.5 14.4 10.9 47 6.4 ESE 44 52 24 28 1019.2 1019.1 0.0
18/05:30am 22.6 14.8 9.7 44 7.0 ESE 41 50 22 27 1018.8 1018.7 0.0
18/05:00am 22.9 15.5 9.7 43 7.1 ESE 39 46 21 25 1018.6 1018.5 0.0
18/04:30am 23.0 15.7 10.1 44 7.0 ESE 39 46 21 25 1018.2 1018.1 0.0
18/04:00am 23.1 16.0 10.9 46 6.8 ESE 39 50 21 27 1018.0 1017.9 0.0
18/03:30am 23.4 16.3 10.8 45 7.0 ESE 39 46 21 25 1017.9 1017.8 0.0
18/03:00am 23.7 16.4 8.6 38 8.0 E 37 46 20 25 1017.9 1017.8 0.0
18/02:30am 24.0 17.0 8.4 37 8.3 ESE 35 44 19 24 1017.9 1017.8 0.0
18/02:00am 24.0 16.7 7.2 34 8.7 ESE 35 43 19 23 1018.1 1018.0 0.0
18/01:30am 24.3 17.2 7.9 35 8.7 ESE 35 48 19 26 1018.0 1017.9 0.0
18/01:00am 24.4 17.4 8.4 36 8.5 ESE 35 46 19 25 1018.1 1018.0 0.0
18/12:30am 24.5 17.2 7.2 33 9.1 ESE 35 46 19 25 1018.2 1018.1 0.0
18/12:00am 24.1 18.3 11.4 45 7.1 ESE 33 41 18 22 1018.2 1018.1 0.0
 
Date/Time
WST
Temp
°C
App
Temp
°C
Dew
Point
°C
Rel
Hum
%
Delta-T
°C
Wind Press
QNH
hPa
Press
MSL
hPa
Rain since
9am
mm
Dir  Spd
km/h
Gust
km/h
Spd
kts
Gust
kts
17/11:30pm 24.2 18.9 12.5 48 6.7 ESE 32 37 17 20 1018.1 1018.0 0.0
17/11:00pm 24.0 18.5 12.0 47 6.8 ESE 32 37 17 20 1018.1 1018.0 0.0
17/10:30pm 24.1 19.1 12.1 47 6.8 E 30 35 16 19 1018.1 1018.0 0.0
17/10:00pm 24.3 19.2 13.2 50 6.4 ESE 32 39 17 21 1018.1 1018.0 0.0
17/09:30pm 24.0 19.5 13.8 53 6.0 E 30 39 16 21 1017.8 1017.7 0.0
17/09:00pm 24.2 19.4 14.0 53 6.0 E 32 39 17 21 1017.7 1017.6 0.0
17/08:30pm 24.3 19.1 14.4 54 5.9 E 35 43 19 23 1017.6 1017.5 0.0
17/08:00pm 24.5 18.9 13.4 50 6.5 E 35 41 19 22 1017.3 1017.2 0.0
17/07:30pm 24.6 19.8 14.7 54 5.9 ENE 33 39 18 21 1017.1 1017.0 0.0
17/07:00pm 24.7 20.7 16.2 59 5.2 ENE 32 39 17 21 1016.6 1016.5 0.0
17/06:30pm 24.6 20.6 16.3 60 5.1 ENE 32 41 17 22 1016.0 1015.9 0.0
17/06:00pm 24.7 20.7 16.7 61 4.9 ENE 33 41 18 22 1015.6 1015.5 0.0
17/05:30pm 24.8 20.0 15.7 57 5.5 ENE 35 39 19 21 1015.2 1015.1 0.0
17/05:00pm 25.3 21.3 16.2 57 5.6 ENE 32 37 17 20 1014.9 1014.8 0.0
17/04:30pm 25.7 22.6 16.5 56 5.7 NE 28 35 15 19 1014.6 1014.5 0.0
17/04:00pm 26.1 22.8 16.9 57 5.7 ENE 30 35 16 19 1014.4 1014.3 0.0
17/03:30pm 26.3 22.7 16.3 54 6.2 NE 30 35 16 19 1014.2 1014.1 0.0
17/03:00pm 27.0 24.7 16.6 53 6.4 ENE 24 33 13 18 1014.1 1014.0 0.0
17/02:30pm 29.2 25.6 13.0 37 9.6 E 24 30 13 16 1014.2 1014.1 0.0
17/02:00pm 28.5 24.6 10.7 33 10.1 E 22 28 12 15 1014.3 1014.2 0.0
17/01:30pm 28.9 25.1 13.6 39 9.1 E 26 35 14 19 1014.7 1014.6 0.0
17/01:00pm 29.0 23.3 11.1 33 10.2 E 32 39 17 21 1015.0 1014.9 0.0
17/12:30pm 28.4 22.6 11.5 35 9.7 E 33 41 18 22 1015.4 1015.3 0.0
17/12:00pm 27.8 22.3 12.6 39 8.9 E 33 43 18 23 1016.1 1016.0 0.0
17/11:30am 27.5 20.9 11.5 37 9.2 E 37 44 20 24 1016.7 1016.6 0.0
17/11:00am 27.7 21.0 13.3 41 8.5 E 41 52 22 28 1017.1 1017.0 0.0
17/10:30am 26.6 20.4 13.7 45 7.6 E 39 48 21 26 1017.7 1017.6 0.0
17/10:00am 26.5 19.7 14.3 47 7.3 E 43 54 23 29 1018.1 1018.0 0.0
17/09:30am 26.0 19.2 14.8 50 6.7 E 44 54 24 29 1018.2 1018.1 0.0
17/09:00am 25.9 19.5 14.4 49 6.8 E 41 54 22 29 1018.4 1018.3 0.0
17/08:30am 25.4 19.1 14.5 51 6.5 ESE 41 54 22 29 1018.5 1018.4 0.0
17/08:00am 25.3 18.6 15.0 53 6.2 ESE 44 54 24 29 1018.3 1018.2 0.0
17/07:30am 24.9 17.7 14.7 53 6.1 ESE 46 54 25 29 1018.0 1017.9 0.0
17/07:00am 24.6 17.5 15.0 55 5.7 ESE 46 57 25 31 1017.5 1017.4 0.0
17/06:30am 24.5 17.6 15.7 58 5.3 ESE 46 56 25 30 1017.1 1017.0 0.0
17/06:00am 24.3 17.0 15.5 58 5.3 ESE 48 56 26 30 1016.6 1016.5 0.0
17/05:30am 24.5 17.8 15.1 55 5.6 E 44 57 24 31 1016.1 1016.0 0.0
17/05:00am 24.6 17.7 15.5 57 5.5 E 46 56 25 30 1015.8 1015.7 0.0
17/04:30am 24.7 17.4 14.5 53 6.1 E 46 56 25 30 1015.5 1015.4 0.0
17/04:00am 24.9 18.4 15.0 54 5.9 E 43 52 23 28 1015.3 1015.2 0.0
17/03:30am 25.2 18.6 14.9 52 6.2 ESE 43 50 23 27 1015.0 1014.9 0.0
17/03:00am 25.5 21.7 15.8 55 5.9 ESE 30 39 16 21 1014.9 1014.8 0.0
17/02:30am 25.4 22.5 17.1 60 5.2 ESE 28 32 15 17 1014.7 1014.6 0.0
17/02:00am 25.4 24.1 18.1 64 4.6 E 22 26 12 14 1014.7 1014.6 0.0
17/01:30am 25.2 24.3 18.2 65 4.4 E 20 22 11 12 1014.9 1014.8 0.0
17/01:00am 25.5 23.8 17.2 60 5.2 E 22 26 12 14 1015.2 1015.1 0.0
17/12:30am 25.3 25.4 19.9 72 3.5 E 19 22 10 12 1015.5 1015.4 0.0
17/12:00am 25.7 24.9 19.3 67 4.1 ENE 22 24 12 13 1015.6 1015.5 0.0
 
Date/Time
WST
Temp
°C
App
Temp
°C
Dew
Point
°C
Rel
Hum
%
Delta-T
°C
Wind Press
QNH
hPa
Press
MSL
hPa
Rain since
9am
mm
Dir  Spd
km/h
Gust
km/h
Spd
kts
Gust
kts
16/11:30pm 25.6 24.8 19.3 68 4.0 ENE 22 28 12 15 1015.6 1015.5 0.0
16/11:00pm 25.6 24.7 19.0 67 4.2 ENE 22 28 12 15 1015.6 1015.5 0.0
16/10:30pm 25.4 24.2 19.3 69 3.9 ENE 24 28 13 15 1015.7 1015.6 0.0
16/10:00pm 25.3 24.5 19.2 69 3.9 NE 22 26 12 14 1015.8 1015.7 0.0
16/09:30pm 25.4 24.3 19.5 70 3.8 ENE 24 30 13 16 1015.8 1015.7 0.0
16/09:00pm 25.3 23.6 19.0 68 4.0 ENE 26 32 14 17 1015.7 1015.6 0.0
16/08:30pm 25.5 22.5 18.7 66 4.3 ENE 32 37 17 20 1015.7 1015.6 0.0
16/08:00pm 25.5 23.3 19.6 70 3.8 ENE 30 37 16 20 1015.8 1015.7 0.0
16/07:30pm 25.7 23.0 19.6 69 3.9 ENE 33 39 18 21 1015.5 1015.4 0.0
16/07:00pm 25.6 23.1 19.7 70 3.8 ENE 32 41 17 22 1015.2 1015.1 0.0
16/06:30pm 25.7 24.4 21.4 77 2.8 ENE 30 35 16 19 1014.6 1014.5 0.0
16/06:00pm 25.8 25.2 21.2 76 3.0 ENE 26 32 14 17 1014.2 1014.1 0.0
16/05:30pm 26.0 24.4 20.1 70 3.8 ENE 28 32 15 17 1013.8 1013.7 0.0
16/05:00pm 26.3 25.6 20.2 69 4.0 NE 24 30 13 16 1013.4 1013.3 0.0
16/04:30pm 27.1 26.5 19.7 64 4.8 NE 22 26 12 14 1013.3 1013.2 0.0
16/04:00pm 27.2 26.7 20.8 68 4.2 NE 24 30 13 16 1013.2 1013.1 0.0
16/03:30pm 27.6 27.3 20.4 65 4.7 NE 22 28 12 15 1013.0 1012.9 0.0
16/03:00pm 28.4 29.2 21.4 66 4.7 NE 19 24 10 13 1012.9 1012.8 0.0
16/02:30pm 28.7 29.7 21.7 66 4.7 NE 19 24 10 13 1012.8 1012.7 0.0
16/02:00pm 27.9 29.5 22.2 71 3.8 NE 17 20 9 11 1012.9 1012.8 0.0
16/01:30pm 28.4 30.3 21.4 66 4.7 NE 13 17 7 9 1013.2 1013.1 0.0
16/01:00pm 29.0 31.4 21.5 64 5.0 ENE 11 15 6 8 1013.7 1013.6 0.0
16/12:30pm 28.5 30.8 21.3 65 4.8 ENE 11 13 6 7 1014.2 1014.1 0.0
16/12:00pm 28.5 30.6 21.0 64 5.0 ENE 11 13 6 7 1014.7 1014.6 0.0
16/11:30am 28.5 31.2 21.3 65 4.8 ENE 9 11 5 6 1015.0 1014.9 0.0
16/11:00am 27.9 31.1 21.2 67 4.5 SW 6 11 3 6 1015.5 1015.4 0.0
16/10:30am 27.7 30.5 20.8 66 4.6 SW 7 11 4 6 1015.8 1015.7 0.0
16/10:00am 28.1 30.6 21.1 65 4.6 SSW 9 13 5 7 1016.1 1016.0 0.0
16/09:30am 28.2 30.7 21.0 65 4.8 SW 9 11 5 6 1016.4 1016.3 0.0
16/09:00am 27.7 30.3 20.5 65 4.7 SW 7 11 4 6 1016.3 1016.2 0.0
16/08:30am 27.2 29.8 20.5 67 4.4 WSW 7 9 4 5 1016.2 1016.1 0.0
16/08:00am 26.9 29.5 20.5 68 4.2 WSW 7 9 4 5 1016.0 1015.9 0.0
16/07:30am 26.4 29.5 20.3 69 4.0 WSW 4 9 2 5 1015.5 1015.4 0.0
16/07:00am 26.0 28.5 20.3 71 3.7 WSW 7 9 4 5 1015.1 1015.0 0.0
16/06:30am 25.2 27.2 20.7 76 2.9 WSW 11 15 6 8 1014.8 1014.7 0.0
16/06:00am 24.9 26.1 20.6 77 2.8 WSW 15 15 8 8 1014.4 1014.3 0.0
16/05:30am 24.5 26.5 20.0 76 2.9 WSW 9 11 5 6 1014.3 1014.2 0.0
16/05:00am 24.5 26.0 19.8 75 3.0 WSW 11 13 6 7 1014.1 1014.0 0.0
16/04:30am 24.2 25.7 19.7 76 2.9 SW 11 13 6 7 1014.2 1014.1 0.0
16/04:00am 23.5 25.5 19.2 77 2.7 W 7 9 4 5 1014.2 1014.1 0.0
16/03:30am 23.7 25.9 19.6 78 2.6 WNW 7 9 4 5 1014.2 1014.1 0.0
16/03:00am 24.0 26.2 19.7 77 2.8 WNW 7 9 4 5 1014.3 1014.2 0.0
16/02:30am 24.3 26.7 20.0 77 2.8 WNW 7 7 4 4 1014.4 1014.3 0.0
16/02:00am 23.8 25.5 19.3 76 2.9 W 9 11 5 6 1014.5 1014.4 0.0
16/01:30am 23.8 26.0 19.5 77 2.8 W 7 9 4 5 1014.5 1014.4 0.0
16/01:00am 23.9 26.3 20.0 79 2.5 WNW 7 9 4 5 1014.6 1014.5 0.0
16/12:30am 24.1 26.5 20.0 78 2.6 NW 7 9 4 5 1014.6 1014.5 0.0
16/12:00am 24.1 26.5 20.0 78 2.6 NW 7 9 4 5 1014.7 1014.6 0.0
 
Date/Time
WST
Temp
°C
App
Temp
°C
Dew
Point
°C
Rel
Hum
%
Delta-T
°C
Wind Press
QNH
hPa
Press
MSL
hPa
Rain since
9am
mm
Dir  Spd
km/h
Gust
km/h
Spd
kts
Gust
kts
15/11:30pm 24.2 26.5 19.9 77 2.8 NW 7 9 4 5 1014.8 1014.7 0.0
15/11:00pm 24.2 26.2 19.9 77 2.8 NNW 9 11 5 6 1014.8 1014.7 0.0
15/10:30pm 24.5 26.5 20.0 76 2.9 NNW 9 11 5 6 1014.7 1014.6 0.0
15/10:00pm 24.4 26.4 19.9 76 2.9 NW 9 9 5 5 1014.6 1014.5 0.0
15/09:30pm 23.9 25.9 20.0 79 2.5 NW 9 11 5 6 1014.7 1014.6 0.0
15/09:00pm 24.1 26.1 20.0 78 2.6 WNW 9 11 5 6 1014.6 1014.5 0.0
15/08:30pm 24.2 25.3 18.8 72 3.4 NW 11 13 6 7 1014.4 1014.3 0.0
15/08:00pm 24.2 24.9 17.9 68 3.9 NW 11 13 6 7 1014.2 1014.1 0.0
15/07:30pm 24.5 25.1 18.7 70 3.7 NW 13 15 7 8 1013.8 1013.7 0.0
15/07:00pm 24.8 25.1 18.0 66 4.3 NW 13 15 7 8 1013.4 1013.3 0.0
15/06:30pm 25.2 25.7 18.4 66 4.3 NNW 13 17 7 9 1012.9 1012.8 0.0
15/06:00pm 25.2 25.4 18.6 67 4.2 NNW 15 19 8 10 1012.5 1012.4 0.0
15/05:30pm 25.4 25.5 19.1 68 4.0 NW 17 17 9 9 1012.1 1012.0 0.0
15/05:00pm 26.3 26.7 18.2 61 5.1 NW 13 17 7 9 1011.8 1011.7 0.0
15/04:30pm 27.1 27.6 19.2 62 5.1 WNW 15 19 8 10 1011.6 1011.5 0.0
15/04:00pm 27.5 28.7 20.6 66 4.5 NW 15 20 8 11 1011.4 1011.3 0.0
15/03:30pm 27.3 28.2 20.9 68 4.2 NW 17 19 9 10 1011.3 1011.2 0.0
15/03:00pm 27.2 28.9 21.0 69 4.1 NW 13 17 7 9 1011.1 1011.0 0.0
15/02:30pm 27.5 29.0 20.6 66 4.5 NW 13 19 7 10 1011.0 1010.9 0.0
15/02:00pm 27.5 29.2 20.1 64 4.8 WNW 11 15 6 8 1011.0 1010.9 0.0
15/01:30pm 27.8 29.1 18.5 57 5.9 W 9 13 5 7 1011.1 1011.0 0.0
15/01:00pm 28.5 30.4 19.7 59 5.7 WNW 9 13 5 7 1011.4 1011.3 0.0
15/12:30pm 28.3 29.7 18.7 56 6.2 WSW 9 11 5 6 1011.8 1011.7 0.0
15/12:00pm 28.0 29.4 18.7 57 6.0 WSW 9 11 5 6 - - 0.0
15/11:30am 27.7 30.0 19.8 62 5.1 SW 7 11 4 6 - - 0.0
15/11:00am 27.1 28.4 18.4 59 5.5 SW 9 11 5 6 - - 0.0
15/10:30am 26.7 29.1 20.8 70 3.9 SSE 9 15 5 8 1013.7 1013.6 0.0
15/10:00am 27.0 29.7 21.3 71 3.8 SE 9 13 5 7 1014.1 1014.0 0.0
15/09:30am 27.3 30.2 21.8 72 3.7 ESE 9 13 5 7 1014.3 1014.2 0.0
15/09:00am 26.2 28.8 21.2 74 3.3 ESE 9 13 5 7 1014.3 1014.2 0.0
15/08:30am 26.4 29.3 21.8 76 3.1 ESE 9 11 5 6 1014.2 1014.1 0.0
15/08:00am 26.1 29.1 22.0 78 2.7 ESE 9 11 5 6 1014.3 1014.2 0.0
15/07:30am 25.6 28.8 21.7 79 2.6 E 7 9 4 5 1014.0 1013.9 0.0

Other formats

Comma delimited format used in spreadsheet applications
http://www.bom.gov.au/fwo/IDW60801/IDW60801.94102.axf

JavaScript Object Notation format (JSON) in row-major order
http://www.bom.gov.au/fwo/IDW60801/IDW60801.94102.json

Data quality

Most of these data are generated automatically and are frequently updated. Quality checks on data are not normally performed. It is possible for incorrect values to appear. Refer to information at About Latest Weather Observations and please check the disclaimer before using these data.